Capt. Gregory Smith — WDC6542 — position and weather

sailwx.info

Track history (hours):
 
Tides and Currents Weather Stations Pressure Air Temp Water Temp Dewpoint Dewpoint Depression Visibility Wind Speed Wind Dir Waves Ship Positions

Capt. Gregory Smith

Owner: American Commercial Lines LLC, Jeffersonville, IN. More information available from US FCC via Universal Licensing System and Coast Guard Vessel Documentation Center.

Last reported at 2018-May-21 19:24 UTC. Time now 2018-May-24 00:22 UTC.
Position N 32°46' W 091°09'.

Length 55 m; draft 3.4 m.

Type: Towing. MMSI: 367057690.

Date/timePositionNaut miles runAvg speedWind from/ knotsBaromVisibWave heightAir tempDewpointWater temp
2018-May-21 19:24N 32°46' W 091°09'7 2.6
2018-May-21 16:51N 32°40' W 091°08'2 4.6
2018-May-21 16:21N 32°38' W 091°09'2 5.4
2018-May-21 16:01N 32°36' W 091°08'3 5.2
2018-May-21 15:31N 32°34' W 091°06'2 4.4
2018-May-21 15:01N 32°32' W 091°06'2 4.9
2018-May-21 14:30N 32°30' W 091°07'2 4.9
2018-May-21 14:01N 32°28' W 091°06'3 5.1
2018-May-21 13:30N 32°26' W 091°03'2 5.0
2018-May-21 13:01N 32°25' W 091°00'2 4.3
2018-May-21 12:30N 32°23' W 090°60'2 4.1
2018-May-21 12:00N 32°21' W 090°59'3 5.1
2018-May-21 11:30N 32°21' W 090°56'2 4.5
2018-May-21 11:00N 32°20' W 090°54'2 3.9
2018-May-21 10:31N 32°18' W 090°55'0 0.3
2018-May-21 10:00N 32°18' W 090°56'1 2.5
2018-May-21 09:30N 32°17' W 090°57'2 4.6
2018-May-21 09:01N 32°15' W 090°58'3 5.1
2018-May-21 08:31N 32°13' W 090°59'2 4.6
2018-May-21 08:00N 32°11' W 090°60'2 4.6
2018-May-21 07:31N 32°08' W 091°00'2 4.1
2018-May-21 07:00N 32°07' W 091°02'3 5.4
2018-May-21 06:31N 32°08' W 091°05'2 3.8
2018-May-21 06:00N 32°06' W 091°06'3 5.3
2018-May-21 05:31N 32°04' W 091°04'2 4.5
2018-May-21 05:00N 32°02' W 091°04'3 5.2
2018-May-21 04:30N 31°60' W 091°06'2 4.5
2018-May-21 03:57N 31°59' W 091°08'3 4.6
2018-May-21 03:21N 31°58' W 091°11'  
2018-May-18 11:53N 30°24' W 091°12'7 2.3
2018-May-18 08:56N 30°31' W 091°15'87 5.3
2018-May-17 16:38N 31°57' W 091°11'1 9.0
2018-May-17 16:30N 31°58' W 091°11'5 8.8
2018-May-17 15:59N 31°60' W 091°06'1 1.3
2018-May-17 14:57N 32°01' W 091°05'1 1.8
2018-May-17 14:26N 32°02' W 091°04'3 7.8
2018-May-17 14:00N 32°05' W 091°05'3 6.5
2018-May-17 13:30N 32°08' W 091°05'4 8.3
2018-May-17 13:00N 32°08' W 091°00'5 9.7
2018-May-17 12:30N 32°13' W 090°59'4 8.9
2018-May-17 12:00N 32°17' W 090°57'4 7.6
2018-May-17 11:31N 32°20' W 090°54'4 8.1
2018-May-17 11:00N 32°21' W 090°59'4 8.3
2018-May-17 10:31N 32°25' W 090°60'510.5
2018-May-17 10:00N 32°27' W 091°06'5 9.1
2018-May-17 09:29N 32°32' W 091°06'5 9.4
2018-May-17 09:00N 32°36' W 091°09'  
Track history (hours):
 
Tides and Currents Weather Stations Pressure Air Temp Water Temp Dewpoint Dewpoint Depression Visibility Wind Speed Wind Dir Waves Ship Positions

Capt. Gregory Smith

Owner: American Commercial Lines LLC, Jeffersonville, IN. More information available from US FCC via Universal Licensing System and Coast Guard Vessel Documentation Center.

Last reported at 2018-May-21 19:24 UTC. Time now 2018-May-24 00:22 UTC.
Position N 32°46' W 091°09'.

Length 55 m; draft 3.4 m.

Type: Towing. MMSI: 367057690.

Date/timePositionNaut miles runAvg speedWind from/ knotsBaromVisibWave heightAir tempDewpointWater temp
2018-May-21 19:24N 32°46' W 091°09'7 2.6
2018-May-21 16:51N 32°40' W 091°08'2 4.6
2018-May-21 16:21N 32°38' W 091°09'2 5.4
2018-May-21 16:01N 32°36' W 091°08'3 5.2
2018-May-21 15:31N 32°34' W 091°06'2 4.4
2018-May-21 15:01N 32°32' W 091°06'2 4.9
2018-May-21 14:30N 32°30' W 091°07'2 4.9
2018-May-21 14:01N 32°28' W 091°06'3 5.1
2018-May-21 13:30N 32°26' W 091°03'2 5.0
2018-May-21 13:01N 32°25' W 091°00'2 4.3
2018-May-21 12:30N 32°23' W 090°60'2 4.1
2018-May-21 12:00N 32°21' W 090°59'3 5.1
2018-May-21 11:30N 32°21' W 090°56'2 4.5
2018-May-21 11:00N 32°20' W 090°54'2 3.9
2018-May-21 10:31N 32°18' W 090°55'0 0.3
2018-May-21 10:00N 32°18' W 090°56'1 2.5
2018-May-21 09:30N 32°17' W 090°57'2 4.6
2018-May-21 09:01N 32°15' W 090°58'3 5.1
2018-May-21 08:31N 32°13' W 090°59'2 4.6
2018-May-21 08:00N 32°11' W 090°60'2 4.6
2018-May-21 07:31N 32°08' W 091°00'2 4.1
2018-May-21 07:00N 32°07' W 091°02'3 5.4
2018-May-21 06:31N 32°08' W 091°05'2 3.8
2018-May-21 06:00N 32°06' W 091°06'3 5.3
2018-May-21 05:31N 32°04' W 091°04'2 4.5
2018-May-21 05:00N 32°02' W 091°04'3 5.2
2018-May-21 04:30N 31°60' W 091°06'2 4.5
2018-May-21 03:57N 31°59' W 091°08'3 4.6
2018-May-21 03:21N 31°58' W 091°11'  
2018-May-18 11:53N 30°24' W 091°12'7 2.3
2018-May-18 08:56N 30°31' W 091°15'87 5.3
2018-May-17 16:38N 31°57' W 091°11'1 9.0
2018-May-17 16:30N 31°58' W 091°11'5 8.8
2018-May-17 15:59N 31°60' W 091°06'1 1.3
2018-May-17 14:57N 32°01' W 091°05'1 1.8
2018-May-17 14:26N 32°02' W 091°04'3 7.8
2018-May-17 14:00N 32°05' W 091°05'3 6.5
2018-May-17 13:30N 32°08' W 091°05'4 8.3
2018-May-17 13:00N 32°08' W 091°00'5 9.7
2018-May-17 12:30N 32°13' W 090°59'4 8.9
2018-May-17 12:00N 32°17' W 090°57'4 7.6
2018-May-17 11:31N 32°20' W 090°54'4 8.1
2018-May-17 11:00N 32°21' W 090°59'4 8.3
2018-May-17 10:31N 32°25' W 090°60'510.5
2018-May-17 10:00N 32°27' W 091°06'5 9.1
2018-May-17 09:29N 32°32' W 091°06'5 9.4
2018-May-17 09:00N 32°36' W 091°09'  

Dump ship's entire track history